createdAt,value
2019-02-18T00:02:10.637Z,19.70
2019-02-18T00:04:39.208Z,20.07
2019-02-18T00:07:14.196Z,21.87
2019-02-18T00:09:37.695Z,21.77
2019-02-18T00:12:06.092Z,23.57
2019-02-18T00:14:34.483Z,19.50
2019-02-18T00:17:02.852Z,16.93
2019-02-18T00:19:31.236Z,17.47
2019-02-18T00:21:59.604Z,18.47
2019-02-18T00:24:27.992Z,19.00
2019-02-18T00:26:56.658Z,21.67
2019-02-18T00:29:25.048Z,21.30
2019-02-18T00:31:53.431Z,23.87
2019-02-18T00:34:21.804Z,18.77
2019-02-18T00:36:50.183Z,21.20
2019-02-18T00:39:18.560Z,22.47
2019-02-18T00:41:49.193Z,18.97
2019-02-18T00:44:17.039Z,17.00
2019-02-18T00:46:45.425Z,19.07
2019-02-18T00:49:13.809Z,19.90
2019-02-18T00:51:42.203Z,18.03
2019-02-18T00:54:10.596Z,17.80
2019-02-18T00:56:38.980Z,16.77
2019-02-18T00:59:07.360Z,17.73
2019-02-18T01:01:35.741Z,16.97
2019-02-18T01:04:04.121Z,16.50
2019-02-18T01:06:32.487Z,17.27
2019-02-18T01:09:00.940Z,11.43
2019-02-18T01:11:29.316Z,13.10
2019-02-18T01:13:57.710Z,11.73
2019-02-18T01:16:26.102Z,13.33
2019-02-18T01:18:54.475Z,11.10
2019-02-18T01:21:22.852Z,12.97
2019-02-18T01:23:51.247Z,11.83
2019-02-18T01:26:19.628Z,13.60
2019-02-18T01:28:48.003Z,17.37
2019-02-18T01:31:16.387Z,19.40
2019-02-18T01:33:44.780Z,18.27
2019-02-18T01:36:13.169Z,18.60
2019-02-18T01:38:41.544Z,16.53
2019-02-18T01:41:09.928Z,17.57
2019-02-18T01:43:38.307Z,16.10
2019-02-18T01:46:06.681Z,18.17
2019-02-18T01:48:35.073Z,19.23
2019-02-18T01:51:03.447Z,18.27
2019-02-18T01:53:31.837Z,21.97
2019-02-18T01:56:00.224Z,21.57
2019-02-18T01:58:28.596Z,19.73
2019-02-18T02:00:56.979Z,20.10
2019-02-18T02:03:25.404Z,16.97
2019-02-18T02:05:53.804Z,23.93
2019-02-18T02:08:22.191Z,22.20
2019-02-18T02:10:50.659Z,17.60
2019-02-18T02:13:32.787Z,22.97
2019-02-18T02:16:02.216Z,22.33
2019-02-18T02:18:30.595Z,19.63
2019-02-18T02:20:59.048Z,16.60
2019-02-18T02:23:27.420Z,18.40
2019-02-18T02:25:55.812Z,25.17
2019-02-18T02:28:24.255Z,23.37
2019-02-18T02:30:52.661Z,21.80
2019-02-18T02:33:21.036Z,17.80
2019-02-18T02:35:49.422Z,27.73
2019-02-18T02:38:17.795Z,18.60
2019-02-18T02:40:46.176Z,24.87
2019-02-18T02:43:14.557Z,17.80
2019-02-18T02:45:42.923Z,21.63
2019-02-18T02:48:11.315Z,19.57
2019-02-18T02:50:39.707Z,23.20
2019-02-18T02:53:08.109Z,21.53
2019-02-18T02:55:36.482Z,24.83
2019-02-18T02:58:04.859Z,17.67
2019-02-18T03:00:33.252Z,14.20
2019-02-18T03:03:01.631Z,22.60
2019-02-18T03:05:30.014Z,15.03
2019-02-18T03:07:58.407Z,24.33
2019-02-18T03:10:26.800Z,24.00
2019-02-18T03:12:55.173Z,30.63
2019-02-18T03:15:23.564Z,21.47
2019-02-18T03:17:51.936Z,23.90
2019-02-18T03:20:20.589Z,22.37
2019-02-18T03:22:48.958Z,20.03
2019-02-18T03:25:25.505Z,21.57
2019-02-18T03:28:06.260Z,16.17
2019-02-18T03:30:46.186Z,27.13
2019-02-18T03:33:38.939Z,16.80
2019-02-18T03:36:07.303Z,31.60
2019-02-18T03:38:35.690Z,24.37
2019-02-18T03:41:04.347Z,20.23
2019-02-18T03:43:32.793Z,13.90
2019-02-18T03:46:01.177Z,14.90
2019-02-18T03:48:29.559Z,15.63
2019-02-18T03:50:57.928Z,14.57
2019-02-18T03:53:26.325Z,21.50
2019-02-18T03:55:54.703Z,16.33
2019-02-18T03:58:23.089Z,18.57
2019-02-18T04:00:51.482Z,20.97
2019-02-18T04:03:19.856Z,16.80
2019-02-18T04:05:48.242Z,18.63
2019-02-18T04:08:16.643Z,12.70
2019-02-18T04:10:45.028Z,16.40
2019-02-18T04:13:13.392Z,19.10
2019-02-18T04:15:41.791Z,15.37
2019-02-18T04:18:10.192Z,21.67
2019-02-18T04:20:38.567Z,21.37
2019-02-18T04:23:06.939Z,14.10
2019-02-18T04:25:35.339Z,17.10
2019-02-18T04:28:03.701Z,19.20
2019-02-18T04:30:32.084Z,21.07
2019-02-18T04:33:00.459Z,16.07
2019-02-18T04:35:28.844Z,20.23
2019-02-18T04:37:57.217Z,16.73
2019-02-18T04:40:25.619Z,16.60
2019-02-18T04:42:54.022Z,15.97
2019-02-18T04:45:22.383Z,23.33
2019-02-18T04:47:50.791Z,17.07
2019-02-18T04:50:19.225Z,17.67
2019-02-18T04:52:47.629Z,16.00
2019-02-18T04:55:16.033Z,17.23
2019-02-18T04:57:44.401Z,21.73
2019-02-18T05:00:12.849Z,25.43
2019-02-18T05:02:41.236Z,25.57
2019-02-18T05:05:10.555Z,21.30
2019-02-18T05:07:38.939Z,19.27
2019-02-18T05:10:11.708Z,16.20
2019-02-18T05:12:40.093Z,16.20
2019-02-18T05:15:09.211Z,21.33
2019-02-18T05:17:37.591Z,21.80
2019-02-18T05:20:08.188Z,19.13
2019-02-18T05:22:36.569Z,18.23
2019-02-18T05:25:09.287Z,18.53
2019-02-18T05:27:37.928Z,18.13
2019-02-18T05:30:09.355Z,17.27
2019-02-18T05:32:37.732Z,18.10
2019-02-18T05:35:07.356Z,23.63
2019-02-18T05:37:35.795Z,16.47
2019-02-18T05:40:05.916Z,18.30
2019-02-18T05:42:34.303Z,18.17
2019-02-18T05:45:02.766Z,26.10
2019-02-18T05:47:31.140Z,17.43
2019-02-18T05:49:59.514Z,25.20
2019-02-18T05:52:27.899Z,18.27
2019-02-18T05:54:56.275Z,21.53
2019-02-18T05:57:24.730Z,18.73
2019-02-18T05:59:53.117Z,20.60
2019-02-18T06:02:22.263Z,18.07
2019-02-18T06:04:50.644Z,19.20
2019-02-18T06:07:19.026Z,15.57
2019-02-18T06:09:47.404Z,21.27
2019-02-18T06:12:15.779Z,19.77
2019-02-18T06:14:44.246Z,21.90
2019-02-18T06:17:12.625Z,17.17
2019-02-18T06:19:41.008Z,19.17
2019-02-18T06:22:09.383Z,21.10
2019-02-18T06:24:37.768Z,22.07
2019-02-18T06:27:06.156Z,13.87
2019-02-18T06:29:34.530Z,19.37
2019-02-18T06:32:02.916Z,21.40
2019-02-18T06:34:31.290Z,18.87
2019-02-18T06:36:59.672Z,20.30
2019-02-18T06:39:28.060Z,21.30
2019-02-18T06:41:56.444Z,16.13
2019-02-18T06:44:26.467Z,16.00
2019-02-18T06:46:56.504Z,15.50
2019-02-18T06:49:24.880Z,18.07
2019-02-18T06:51:53.252Z,28.00
2019-02-18T06:54:21.639Z,20.13
2019-02-18T06:56:54.555Z,20.57
2019-02-18T06:59:44.040Z,16.93
2019-02-18T07:02:16.467Z,14.43
2019-02-18T07:04:46.496Z,15.37
2019-02-18T07:07:16.507Z,14.90
2019-02-18T07:09:51.322Z,18.73
2019-02-18T07:12:18.293Z,18.63
2019-02-18T07:14:46.655Z,15.00
2019-02-18T07:17:15.041Z,13.53
2019-02-18T07:19:43.415Z,15.67
2019-02-18T07:22:11.868Z,16.67
2019-02-18T07:24:40.248Z,16.80
2019-02-18T07:27:08.620Z,13.13
2019-02-18T07:29:37.004Z,14.43
2019-02-18T07:32:05.375Z,19.20
2019-02-18T07:34:33.765Z,16.50
2019-02-18T07:37:02.212Z,14.03
2019-02-18T07:39:30.591Z,12.83
2019-02-18T07:41:58.971Z,18.77
2019-02-18T07:44:27.364Z,17.63
2019-02-18T07:46:55.739Z,12.00
2019-02-18T07:49:24.139Z,17.30
2019-02-18T07:51:52.512Z,14.47
2019-02-18T07:54:20.887Z,15.67
2019-02-18T07:56:49.268Z,16.20
2019-02-18T07:59:17.644Z,18.13
2019-02-18T08:01:46.033Z,29.43
2019-02-18T08:04:14.414Z,18.87
2019-02-18T08:06:42.793Z,19.17
2019-02-18T08:09:11.167Z,18.80
2019-02-18T08:11:39.574Z,13.43
2019-02-18T08:14:07.947Z,14.33
2019-02-18T08:16:36.323Z,14.50
2019-02-18T08:19:04.712Z,15.43
2019-02-18T08:21:33.104Z,17.27
2019-02-18T08:24:01.497Z,21.00
2019-02-18T08:26:29.895Z,17.07
2019-02-18T08:28:58.271Z,26.07
2019-02-18T08:31:26.668Z,51.27
2019-02-18T08:33:55.064Z,28.30
2019-02-18T08:36:23.452Z,59.13
2019-02-18T08:38:51.831Z,16.60
2019-02-18T08:41:20.221Z,14.87
2019-02-18T08:43:48.595Z,15.57
2019-02-18T08:46:16.984Z,15.13
2019-02-18T08:48:45.376Z,20.17
2019-02-18T08:51:13.764Z,22.47
2019-02-18T08:53:42.147Z,18.60
2019-02-18T08:56:10.528Z,24.50
2019-02-18T08:58:38.913Z,23.30
2019-02-18T09:01:07.288Z,16.67
2019-02-18T09:03:35.676Z,18.17
2019-02-18T09:06:04.060Z,24.53
2019-02-18T09:08:32.439Z,18.87
2019-02-18T09:11:00.827Z,19.43
2019-02-18T09:13:29.205Z,17.37
2019-02-18T09:16:00.148Z,17.83
2019-02-18T09:18:27.703Z,20.73
2019-02-18T09:20:56.080Z,17.30
2019-02-18T09:23:26.112Z,16.23
2019-02-18T09:25:54.500Z,16.33
2019-02-18T09:28:22.887Z,14.73
2019-02-18T09:30:52.455Z,19.80
2019-02-18T09:33:20.855Z,17.30
2019-02-18T09:35:49.223Z,18.03
2019-02-18T09:38:24.975Z,18.87
2019-02-18T09:40:51.433Z,23.23
2019-02-18T09:43:17.837Z,22.37
2019-02-18T09:45:46.233Z,17.73
2019-02-18T09:48:14.607Z,14.60
2019-02-18T09:50:42.988Z,20.70
2019-02-18T09:53:11.406Z,19.53
2019-02-18T09:55:39.779Z,14.57
2019-02-18T09:58:08.172Z,15.83
2019-02-18T10:00:36.577Z,16.47
2019-02-18T10:03:05.024Z,20.17
2019-02-18T10:05:33.405Z,18.67
2019-02-18T10:08:01.841Z,18.70
2019-02-18T10:10:30.215Z,19.87
2019-02-18T10:12:59.653Z,21.57
2019-02-18T10:15:28.311Z,14.77
2019-02-18T10:17:56.762Z,19.37
2019-02-18T10:20:25.169Z,13.73
2019-02-18T10:22:53.551Z,16.87
2019-02-18T10:25:21.955Z,18.13
2019-02-18T10:27:50.345Z,16.37
2019-02-18T10:30:20.679Z,23.57
2019-02-18T10:32:48.845Z,19.80
2019-02-18T10:35:17.236Z,21.43
2019-02-18T10:37:54.677Z,15.27
2019-02-18T10:40:15.952Z,24.47
2019-02-18T10:42:44.340Z,21.23
2019-02-18T10:45:13.205Z,17.83
2019-02-18T10:47:41.588Z,16.47
2019-02-18T10:50:11.407Z,20.60
2019-02-18T10:52:39.796Z,17.53
2019-02-18T10:55:10.593Z,19.80
2019-02-18T10:57:39.415Z,17.80
2019-02-18T11:00:11.116Z,16.50
2019-02-18T11:02:39.504Z,17.97
2019-02-18T11:05:08.419Z,18.80
2019-02-18T11:07:36.813Z,13.97
2019-02-18T11:10:16.103Z,17.00
2019-02-18T11:12:44.491Z,16.40
2019-02-18T11:15:14.011Z,18.77
2019-02-18T11:17:42.779Z,15.43
2019-02-18T11:20:12.201Z,16.47
2019-02-18T11:22:40.610Z,15.63
2019-02-18T11:25:14.449Z,13.13
2019-02-18T11:27:42.843Z,24.37
2019-02-18T11:30:15.964Z,17.13
2019-02-18T11:32:44.371Z,20.47
2019-02-18T11:35:12.907Z,19.43
2019-02-18T11:37:41.287Z,18.13
2019-02-18T11:40:14.855Z,12.80
2019-02-18T11:42:43.241Z,15.13
2019-02-18T11:45:16.037Z,19.53
2019-02-18T11:47:44.419Z,19.77
2019-02-18T11:50:14.808Z,16.87
2019-02-18T11:52:43.207Z,21.87
2019-02-18T11:55:12.938Z,15.80
2019-02-18T11:57:41.818Z,12.13
2019-02-18T12:00:15.033Z,14.40
2019-02-18T12:02:43.417Z,16.43
2019-02-18T12:05:12.162Z,17.33
2019-02-18T12:07:40.553Z,15.17
2019-02-18T12:10:13.389Z,19.97
2019-02-18T12:12:42.059Z,19.40
2019-02-18T12:15:14.824Z,21.63
2019-02-18T12:17:43.227Z,14.57
2019-02-18T12:20:13.151Z,22.50
2019-02-18T12:22:41.598Z,28.90
2019-02-18T12:25:10.940Z,16.32
2019-02-18T12:27:39.693Z,13.80
2019-02-18T12:30:16.246Z,14.13
2019-02-18T12:32:44.787Z,13.43
2019-02-18T12:35:13.243Z,13.88
2019-02-18T12:37:41.619Z,15.55
2019-02-18T12:40:13.772Z,12.33
2019-02-18T12:42:42.646Z,16.73
2019-02-18T12:45:14.254Z,13.50
2019-02-18T12:47:42.759Z,14.85
2019-02-18T12:50:12.200Z,13.18
2019-02-18T12:52:40.655Z,14.13
2019-02-18T12:55:10.544Z,14.93
2019-02-18T12:57:39.224Z,13.85
2019-02-18T13:00:13.898Z,14.75
2019-02-18T13:03:01.858Z,15.32
2019-02-18T13:05:30.328Z,12.23
2019-02-18T13:07:58.711Z,13.45
2019-02-18T13:10:34.550Z,12.93
2019-02-18T13:12:57.279Z,13.90
2019-02-18T13:15:25.688Z,14.40
2019-02-18T13:17:54.071Z,15.05
2019-02-18T13:20:22.451Z,14.00
2019-02-18T13:22:50.839Z,13.03
2019-02-18T13:25:19.219Z,13.48
2019-02-18T13:27:47.991Z,11.65
2019-02-18T13:30:18.607Z,11.57
2019-02-18T13:32:46.989Z,12.30
2019-02-18T13:35:15.379Z,11.65
2019-02-18T13:37:43.760Z,11.95
2019-02-18T13:40:16.843Z,11.48
2019-02-18T13:42:45.659Z,12.88
2019-02-18T13:45:14.115Z,15.65
2019-02-18T13:47:42.567Z,14.10
2019-02-18T13:50:12.967Z,10.50
2019-02-18T13:52:41.480Z,17.53
2019-02-18T13:55:12.179Z,11.27
2019-02-18T13:57:41.376Z,13.70
2019-02-18T14:00:17.083Z,11.20
2019-02-18T14:02:45.528Z,10.77
2019-02-18T14:05:13.977Z,12.30
2019-02-18T14:07:42.359Z,13.67
2019-02-18T14:10:10.811Z,14.23
2019-02-18T14:12:39.560Z,13.07
2019-02-18T14:15:10.595Z,12.10
2019-02-18T14:17:39.059Z,14.33
2019-02-18T14:20:15.307Z,17.27
2019-02-18T14:22:43.771Z,18.07
2019-02-18T14:25:13.559Z,13.33
2019-02-18T14:27:41.940Z,12.67
2019-02-18T14:30:15.428Z,18.47
2019-02-18T14:32:43.807Z,16.57
2019-02-18T14:35:12.267Z,14.10
2019-02-18T14:37:40.640Z,12.13
2019-02-18T14:40:11.215Z,14.83
2019-02-18T14:42:39.665Z,14.70
2019-02-18T14:45:09.092Z,15.27
2019-02-18T14:47:37.475Z,20.40
2019-02-18T14:50:10.547Z,17.30
2019-02-18T14:52:38.939Z,15.50
2019-02-18T14:55:08.835Z,15.83
2019-02-18T14:57:37.219Z,13.00
2019-02-18T15:00:20.617Z,12.40
2019-02-18T15:02:49.727Z,14.20
2019-02-18T15:05:19.015Z,12.07
2019-02-18T15:07:47.455Z,16.20
2019-02-18T15:10:16.200Z,13.77
2019-02-18T15:12:44.591Z,15.03
2019-02-18T15:15:13.308Z,10.40
2019-02-18T15:17:41.695Z,12.23
2019-02-18T15:20:11.499Z,17.47
2019-02-18T15:22:40.288Z,14.70
2019-02-18T15:25:10.112Z,12.13
2019-02-18T15:27:38.547Z,16.00
2019-02-18T15:30:10.038Z,15.37
2019-02-18T15:32:38.483Z,11.60
2019-02-18T15:35:07.051Z,12.90
2019-02-18T15:37:35.928Z,12.10
2019-02-18T15:40:06.816Z,14.87
2019-02-18T15:42:41.836Z,13.83
2019-02-18T15:45:06.344Z,16.07
2019-02-18T15:47:34.735Z,11.77
2019-02-18T15:50:03.881Z,13.83
2019-02-18T15:52:32.339Z,15.53
2019-02-18T15:55:00.766Z,15.67
2019-02-18T15:57:29.135Z,16.40
2019-02-18T15:59:57.532Z,18.73
2019-02-18T16:02:25.915Z,14.63
2019-02-18T16:04:54.291Z,11.93
2019-02-18T16:07:23.051Z,14.10
2019-02-18T16:09:51.433Z,18.57
2019-02-18T16:12:19.824Z,12.03
2019-02-18T16:14:48.476Z,14.93
2019-02-18T16:17:16.855Z,14.63
2019-02-18T16:19:45.238Z,16.17
2019-02-18T16:22:13.619Z,15.73
2019-02-18T16:24:42.288Z,16.53
2019-02-18T16:27:10.676Z,13.73
2019-02-18T16:29:39.067Z,13.07
2019-02-18T16:32:07.459Z,10.93
2019-02-18T16:34:35.828Z,9.30
2019-02-18T16:37:04.660Z,11.07
2019-02-18T16:39:33.045Z,11.23
2019-02-18T16:42:01.708Z,16.23
2019-02-18T16:44:30.083Z,11.90
2019-02-18T16:46:58.471Z,11.20
2019-02-18T16:49:26.856Z,11.50
2019-02-18T16:51:55.247Z,11.50
2019-02-18T16:54:23.904Z,11.43
2019-02-18T16:56:52.290Z,12.00
2019-02-18T16:59:20.675Z,12.10
2019-02-18T17:01:49.055Z,14.37
2019-02-18T17:04:17.436Z,15.97
2019-02-18T17:06:45.831Z,12.87
2019-02-18T17:09:14.284Z,12.27
2019-02-18T17:11:42.699Z,12.10
2019-02-18T17:14:11.093Z,11.63
2019-02-18T17:16:39.471Z,13.73
2019-02-18T17:19:07.864Z,17.93
2019-02-18T17:21:36.247Z,15.03
2019-02-18T17:24:04.644Z,11.83
2019-02-18T17:26:33.499Z,14.40
2019-02-18T17:29:01.887Z,13.53
2019-02-18T17:31:30.262Z,12.80
2019-02-18T17:33:58.652Z,13.80
2019-02-18T17:36:27.027Z,14.20
2019-02-18T17:38:55.496Z,12.87
2019-02-18T17:41:23.964Z,18.23
2019-02-18T17:43:52.749Z,12.03
2019-02-18T17:46:21.196Z,15.37
2019-02-18T17:48:49.583Z,12.90
2019-02-18T17:51:17.959Z,14.70
2019-02-18T17:53:46.335Z,9.60
2019-02-18T17:56:14.731Z,16.13
2019-02-18T17:58:43.118Z,14.03
2019-02-18T18:01:11.499Z,14.20
2019-02-18T18:03:39.884Z,16.80
2019-02-18T18:06:08.264Z,13.37
2019-02-18T18:08:36.643Z,13.00
2019-02-18T18:11:05.032Z,10.73
2019-02-18T18:13:33.413Z,11.97
2019-02-18T18:16:02.571Z,10.27
2019-02-18T18:18:30.982Z,13.00
2019-02-18T18:20:59.368Z,12.77
2019-02-18T18:23:27.747Z,13.93
2019-02-18T18:25:56.135Z,12.07
2019-02-18T18:28:24.519Z,11.93
2019-02-18T18:30:52.895Z,12.30
2019-02-18T18:33:21.289Z,13.77
2019-02-18T18:35:49.696Z,15.80
2019-02-18T18:38:18.076Z,15.83
2019-02-18T18:40:46.456Z,15.60
2019-02-18T18:43:14.908Z,15.03
2019-02-18T18:46:02.631Z,11.53
2019-02-18T18:48:31.017Z,8.83
2019-02-18T18:50:59.389Z,9.17
2019-02-18T18:53:27.783Z,11.37
2019-02-18T18:55:56.160Z,11.03
2019-02-18T18:58:24.539Z,10.60
2019-02-18T19:00:52.931Z,10.53
2019-02-18T19:03:21.329Z,10.60
2019-02-18T19:05:49.702Z,11.37
2019-02-18T19:08:18.079Z,10.10
2019-02-18T19:10:46.462Z,10.97
2019-02-18T19:13:14.843Z,12.47
2019-02-18T19:15:49.481Z,12.90
2019-02-18T19:18:13.320Z,9.10
2019-02-18T19:20:41.712Z,12.33
2019-02-18T19:23:10.104Z,12.20
2019-02-18T19:25:38.484Z,10.97
2019-02-18T19:28:06.871Z,11.83
2019-02-18T19:30:35.242Z,8.43
2019-02-18T19:33:03.612Z,14.70
2019-02-18T19:35:32.000Z,12.47
2019-02-18T19:38:00.371Z,10.80
2019-02-18T19:40:28.752Z,11.03
2019-02-18T19:42:57.139Z,10.67
2019-02-18T19:45:25.692Z,10.87
2019-02-18T19:47:54.080Z,14.00
2019-02-18T19:50:22.447Z,9.23
2019-02-18T19:52:50.829Z,12.03
2019-02-18T19:55:19.280Z,9.67
2019-02-18T19:57:47.662Z,15.23
2019-02-18T20:00:18.540Z,10.00
2019-02-18T20:02:46.979Z,13.23
2019-02-18T20:05:15.435Z,12.23
2019-02-18T20:07:44.313Z,14.93
2019-02-18T20:10:13.607Z,9.93
2019-02-18T20:12:41.979Z,18.93
2019-02-18T20:15:13.052Z,13.23
2019-02-18T20:17:41.433Z,12.67
2019-02-18T20:20:12.048Z,13.73
2019-02-18T20:22:40.499Z,13.13
2019-02-18T20:25:09.519Z,10.63
2019-02-18T20:27:37.901Z,16.20
2019-02-18T20:30:09.873Z,10.97
2019-02-18T20:32:38.243Z,14.63
2019-02-18T20:35:08.162Z,11.90
2019-02-18T20:37:36.549Z,13.83
2019-02-18T20:40:06.382Z,11.50
2019-02-18T20:42:34.751Z,11.37
2019-02-18T20:45:03.204Z,14.83
2019-02-18T20:47:31.583Z,11.93
2019-02-18T20:49:59.959Z,10.03
2019-02-18T20:52:28.342Z,10.27
2019-02-18T20:54:56.800Z,10.63
2019-02-18T20:57:25.182Z,13.83
2019-02-18T20:59:53.937Z,7.17
2019-02-18T21:02:22.319Z,10.57
2019-02-18T21:04:50.696Z,12.00
2019-02-18T21:07:19.088Z,7.43
2019-02-18T21:09:47.460Z,8.60
2019-02-18T21:12:19.888Z,9.40
2019-02-18T21:14:45.972Z,12.13
2019-02-18T21:17:14.348Z,8.33
2019-02-18T21:19:42.720Z,9.70
2019-02-18T21:22:11.108Z,9.80
2019-02-18T21:24:39.490Z,14.87
2019-02-18T21:27:07.860Z,9.70
2019-02-18T21:29:36.248Z,15.50
2019-02-18T21:32:04.628Z,9.10
2019-02-18T21:34:33.003Z,5.53
2019-02-18T21:37:01.380Z,7.00
2019-02-18T21:39:29.748Z,7.23
2019-02-18T21:41:58.140Z,10.37
2019-02-18T21:44:27.088Z,7.30
2019-02-18T21:46:56.279Z,6.53
2019-02-18T21:49:24.659Z,8.13
2019-02-18T21:51:53.035Z,6.93
2019-02-18T21:54:21.404Z,8.93
2019-02-18T21:56:49.791Z,11.83
2019-02-18T21:59:18.159Z,8.17
2019-02-18T22:01:46.928Z,7.60
2019-02-18T22:04:15.303Z,10.03
2019-02-18T22:06:43.701Z,14.07
2019-02-18T22:09:12.076Z,7.37
2019-02-18T22:11:40.458Z,8.60
2019-02-18T22:14:08.829Z,7.03
2019-02-18T22:16:37.226Z,10.27
2019-02-18T22:19:05.871Z,11.23
2019-02-18T22:21:34.250Z,8.90
2019-02-18T22:24:02.647Z,10.20
2019-02-18T22:26:31.019Z,12.70
2019-02-18T22:28:59.397Z,9.47
2019-02-18T22:31:27.783Z,13.00
2019-02-18T22:33:56.166Z,7.83
2019-02-18T22:36:24.820Z,11.80
2019-02-18T22:38:53.220Z,14.27
2019-02-18T22:41:21.592Z,8.97
2019-02-18T22:43:49.971Z,8.40
2019-02-18T22:46:18.359Z,9.80
2019-02-18T22:48:46.731Z,9.57
2019-02-18T22:51:15.112Z,8.37
2019-02-18T22:53:43.878Z,9.23
2019-02-18T22:56:12.255Z,8.23
2019-02-18T22:58:40.643Z,14.67
2019-02-18T23:01:09.384Z,7.67
2019-02-18T23:03:37.759Z,9.17
2019-02-18T23:06:06.154Z,7.60
2019-02-18T23:08:34.538Z,10.80
2019-02-18T23:11:03.282Z,9.27
2019-02-18T23:13:31.666Z,10.40
2019-02-18T23:16:00.113Z,8.63
2019-02-18T23:18:28.491Z,8.73
2019-02-18T23:20:56.879Z,8.30
2019-02-18T23:23:25.259Z,9.87
2019-02-18T23:25:53.635Z,8.50
2019-02-18T23:28:22.013Z,6.60
2019-02-18T23:30:50.387Z,5.87
2019-02-18T23:33:18.763Z,7.40
2019-02-18T23:35:47.208Z,9.90
2019-02-18T23:38:15.593Z,9.03
2019-02-18T23:40:43.967Z,9.60
2019-02-18T23:43:12.353Z,9.13
2019-02-18T23:45:40.719Z,7.10
2019-02-18T23:48:09.099Z,9.13
2019-02-18T23:50:37.472Z,8.43
2019-02-18T23:53:05.852Z,7.77
2019-02-18T23:55:34.224Z,5.67
2019-02-18T23:58:02.603Z,8.57
